createdAt,value
2019-04-03T00:03:59.909Z,5.20
2019-04-03T00:06:29.292Z,4.83
2019-04-03T00:08:58.766Z,5.03
2019-04-03T00:11:28.056Z,5.47
2019-04-03T00:13:57.605Z,5.67
2019-04-03T00:16:26.810Z,6.10
2019-04-03T00:18:56.085Z,5.40
2019-04-03T00:21:25.319Z,5.93
2019-04-03T00:23:54.623Z,6.10
2019-04-03T00:26:24.108Z,6.57
2019-04-03T00:28:53.493Z,6.80
2019-04-03T00:31:23.352Z,5.97
2019-04-03T00:33:53.957Z,6.07
2019-04-03T00:36:23.791Z,6.30
2019-04-03T00:38:54.765Z,6.60
2019-04-03T00:41:25.229Z,6.33
2019-04-03T00:43:55.060Z,5.83
2019-04-03T00:46:25.476Z,6.43
2019-04-03T00:48:55.856Z,6.30
2019-04-03T00:51:27.501Z,7.20
2019-04-03T00:53:58.005Z,6.97
2019-04-03T00:56:28.014Z,7.07
2019-04-03T01:01:32.179Z,6.63
2019-04-03T01:04:01.472Z,6.13
2019-04-03T01:06:31.047Z,5.40
2019-04-03T01:09:00.246Z,6.70
2019-04-03T01:11:30.595Z,6.70
2019-04-03T01:14:01.845Z,6.93
2019-04-03T01:16:33.086Z,6.90
2019-04-03T01:19:05.114Z,6.57
2019-04-03T01:21:33.352Z,7.07
2019-04-03T01:24:02.545Z,6.77
2019-04-03T01:26:31.903Z,6.93
2019-04-03T01:29:01.109Z,6.77
2019-04-03T01:31:30.385Z,7.20
2019-04-03T01:33:59.973Z,6.37
2019-04-03T01:36:29.249Z,6.27
2019-04-03T01:38:58.457Z,6.80
2019-04-03T01:41:27.736Z,6.40
2019-04-03T01:43:56.934Z,6.17
2019-04-03T01:46:27.630Z,6.30
2019-04-03T01:48:58.431Z,7.00
2019-04-03T01:51:29.745Z,6.70
2019-04-03T01:53:59.328Z,6.57
2019-04-03T01:56:28.520Z,6.70
2019-04-03T01:58:58.107Z,6.60
2019-04-03T02:01:27.312Z,7.10
2019-04-03T02:03:56.581Z,6.53
2019-04-03T02:06:25.898Z,6.00
2019-04-03T02:08:55.119Z,7.13
2019-04-03T02:11:24.321Z,6.10
2019-04-03T02:13:53.589Z,7.03
2019-04-03T02:16:23.209Z,6.27
2019-04-03T02:18:55.460Z,6.67
2019-04-03T02:21:27.205Z,6.40
2019-04-03T02:23:55.823Z,6.57
2019-04-03T02:26:24.995Z,6.43
2019-04-03T02:28:54.261Z,6.07
2019-04-03T02:31:23.463Z,6.73
2019-04-03T02:33:52.743Z,6.03
2019-04-03T02:36:21.947Z,6.27
2019-04-03T02:38:51.541Z,6.10
2019-04-03T02:41:22.372Z,6.13
2019-04-03T02:43:51.887Z,6.13
2019-04-03T02:46:22.568Z,6.00
2019-04-03T02:48:51.922Z,6.70
2019-04-03T02:51:21.129Z,6.70
2019-04-03T02:53:50.410Z,6.27
2019-04-03T02:56:19.590Z,6.57
2019-04-03T02:58:48.864Z,6.63
2019-04-03T03:01:18.078Z,6.40
2019-04-03T03:03:49.434Z,7.40
2019-04-03T03:06:18.428Z,6.57
2019-04-03T03:09:27.070Z,8.07
2019-04-03T03:12:35.650Z,7.27
2019-04-03T03:15:45.017Z,7.20
2019-04-03T03:18:15.744Z,7.13
2019-04-03T03:27:16.769Z,6.50
2019-04-03T03:30:39.624Z,7.40
2019-04-03T03:36:44.685Z,8.27
2019-04-03T03:42:10.844Z,7.40
2019-04-03T03:48:15.195Z,7.60
2019-04-03T03:51:24.294Z,6.90
2019-04-03T03:54:32.953Z,7.67
2019-04-03T03:57:41.843Z,7.70
2019-04-03T04:00:52.331Z,8.03
2019-04-03T04:04:01.058Z,7.80
2019-04-03T04:06:34.794Z,7.00
2019-04-03T04:09:22.461Z,6.87
2019-04-03T04:12:12.359Z,7.20
2019-04-03T04:14:41.966Z,6.97
2019-04-03T04:17:15.492Z,7.13
2019-04-03T04:19:43.131Z,7.27
2019-04-03T04:22:15.604Z,6.70
2019-04-03T04:24:44.409Z,7.17
2019-04-03T04:27:13.853Z,7.10
2019-04-03T04:32:37.872Z,7.40
2019-04-03T04:35:10.355Z,7.10
2019-04-03T04:37:40.134Z,7.73
2019-04-03T04:40:09.993Z,7.43
2019-04-03T04:42:39.879Z,8.50
2019-04-03T04:45:09.797Z,7.77
2019-04-03T04:47:40.148Z,7.40
2019-04-03T04:50:09.352Z,7.70
2019-04-03T04:52:38.635Z,6.70
2019-04-03T04:55:08.204Z,7.33
2019-04-03T04:57:41.008Z,8.10
2019-04-03T05:00:09.794Z,7.80
2019-04-03T05:02:39.096Z,7.07
2019-04-03T05:05:09.181Z,7.60
2019-04-03T05:07:39.304Z,7.97
2019-04-03T05:10:08.619Z,8.60
2019-04-03T05:12:39.086Z,7.73
2019-04-03T05:15:48.462Z,7.77
2019-04-03T05:18:17.707Z,8.10
2019-04-03T05:20:49.077Z,7.10
2019-04-03T05:23:18.772Z,7.50
2019-04-03T05:25:47.977Z,7.83
2019-04-03T05:28:17.236Z,8.07
2019-04-03T05:30:49.293Z,8.00
2019-04-03T05:33:18.573Z,8.47
2019-04-03T05:35:47.782Z,7.27
2019-04-03T05:38:17.073Z,8.17
2019-04-03T05:40:46.270Z,8.00
2019-04-03T05:43:15.948Z,8.07
2019-04-03T05:45:45.323Z,8.93
2019-04-03T05:48:17.688Z,8.50
2019-04-03T05:53:41.254Z,8.77
2019-04-03T05:56:12.590Z,7.90
2019-04-03T05:58:53.774Z,8.57
2019-04-03T06:01:12.672Z,8.43
2019-04-03T06:03:44.895Z,7.77
2019-04-03T06:06:14.421Z,10.07
2019-04-03T06:08:43.802Z,9.03
2019-04-03T06:11:13.253Z,8.80
2019-04-03T06:13:42.500Z,8.90
2019-04-03T06:16:11.779Z,9.93
2019-04-03T06:18:40.985Z,9.00
2019-04-03T06:21:10.487Z,9.23
2019-04-03T06:23:41.191Z,9.13
2019-04-03T06:26:10.471Z,9.10
2019-04-03T06:28:42.417Z,9.27
2019-04-03T06:31:10.671Z,8.80
2019-04-03T06:33:40.071Z,9.10
2019-04-03T06:36:09.334Z,9.43
2019-04-03T06:38:38.763Z,8.73
2019-04-03T06:41:09.653Z,8.90
2019-04-03T06:43:38.927Z,8.73
2019-04-03T06:46:09.839Z,9.07
2019-04-03T06:48:39.196Z,8.80
2019-04-03T06:51:09.269Z,8.80
2019-04-03T06:53:38.445Z,9.00
2019-04-03T06:56:08.927Z,9.07
2019-04-03T06:58:40.191Z,9.40
2019-04-03T07:01:09.697Z,8.73
2019-04-03T07:03:39.229Z,8.70
2019-04-03T07:06:08.979Z,8.93
2019-04-03T07:08:41.108Z,9.00
2019-04-03T07:11:22.853Z,8.87
2019-04-03T07:13:42.099Z,9.53
2019-04-03T07:16:11.673Z,9.63
2019-04-03T07:18:42.320Z,9.50
2019-04-03T07:23:46.054Z,9.30
2019-04-03T07:26:15.345Z,9.30
2019-04-03T07:28:44.554Z,9.67
2019-04-03T07:31:13.857Z,10.20
2019-04-03T07:33:43.068Z,10.17
2019-04-03T07:36:12.334Z,10.43
2019-04-03T07:38:41.643Z,9.20
2019-04-03T07:41:10.846Z,9.83
2019-04-03T07:43:40.326Z,9.87
2019-04-03T07:46:09.510Z,9.43
2019-04-03T07:48:38.869Z,10.50
2019-04-03T07:51:08.461Z,10.03
2019-04-03T07:53:39.220Z,10.53
2019-04-03T07:56:08.816Z,11.30
2019-04-03T07:58:38.105Z,10.30
2019-04-03T08:01:09.545Z,9.37
2019-04-03T08:03:39.204Z,9.93
2019-04-03T08:06:08.415Z,11.60
2019-04-03T08:08:37.619Z,10.33
2019-04-03T08:11:07.011Z,11.23
2019-04-03T08:13:38.387Z,9.27
2019-04-03T08:16:07.306Z,10.23
2019-04-03T08:18:36.516Z,10.50
2019-04-03T08:21:05.997Z,9.80
2019-04-03T08:23:36.722Z,10.80
2019-04-03T08:26:06.215Z,10.40
2019-04-03T08:28:35.438Z,9.83
2019-04-03T08:34:00.172Z,10.37
2019-04-03T08:36:29.558Z,10.07
2019-04-03T08:39:00.587Z,10.37
2019-04-03T08:41:48.940Z,11.17
2019-04-03T08:44:18.355Z,10.27
2019-04-03T08:47:06.687Z,10.50
2019-04-03T08:49:36.508Z,10.17
2019-04-03T08:52:06.179Z,9.83
2019-04-03T08:54:36.722Z,11.07
2019-04-03T08:57:25.013Z,11.13
2019-04-03T08:59:54.295Z,11.20
2019-04-03T09:02:23.505Z,10.57
2019-04-03T09:04:52.948Z,11.30
2019-04-03T09:07:24.634Z,12.50
2019-04-03T09:09:53.218Z,11.27
2019-04-03T09:12:22.404Z,11.00
2019-04-03T09:17:45.809Z,14.53
2019-04-03T09:20:35.566Z,14.47
2019-04-03T09:23:05.369Z,13.23
2019-04-03T09:25:36.003Z,9.60
2019-04-03T09:28:12.675Z,8.33
2019-04-03T09:30:41.820Z,9.70
2019-04-03T09:33:11.256Z,10.70
2019-04-03T09:35:42.817Z,11.03
2019-04-03T09:38:11.829Z,10.00
2019-04-03T09:40:41.352Z,9.93
2019-04-03T09:43:10.654Z,8.63
2019-04-03T09:46:00.641Z,7.60
2019-04-03T09:48:41.855Z,8.73
2019-04-03T09:51:11.129Z,12.50
2019-04-03T09:53:40.400Z,10.23
2019-04-03T09:56:28.920Z,9.97
2019-04-03T09:58:58.581Z,8.80
2019-04-03T10:01:27.757Z,8.23
2019-04-03T10:03:57.020Z,7.70
2019-04-03T10:06:26.446Z,7.20
2019-04-03T10:08:57.210Z,7.53
2019-04-03T10:11:26.415Z,6.90
2019-04-03T10:13:57.494Z,8.50
2019-04-03T10:16:26.600Z,7.83
2019-04-03T10:18:55.867Z,7.37
2019-04-03T10:21:44.242Z,9.27
2019-04-03T10:24:13.493Z,9.20
2019-04-03T10:26:42.698Z,9.37
2019-04-03T10:29:12.033Z,8.73
2019-04-03T10:31:41.640Z,10.67
2019-04-03T10:34:14.447Z,8.70
2019-04-03T10:36:43.779Z,11.00
2019-04-03T10:39:15.949Z,9.63
2019-04-03T10:41:46.217Z,9.43
2019-04-03T10:44:15.475Z,9.67
2019-04-03T10:46:44.665Z,10.30
2019-04-03T10:49:14.020Z,9.23
2019-04-03T10:51:43.863Z,9.03
2019-04-03T10:54:14.595Z,7.53
2019-04-03T10:56:44.120Z,7.77
2019-04-03T10:59:17.944Z,7.97
2019-04-03T11:01:46.100Z,8.50
2019-04-03T11:06:50.507Z,9.23
2019-04-03T11:09:19.929Z,8.43
2019-04-03T11:11:49.129Z,7.77
2019-04-03T11:14:18.698Z,7.53
2019-04-03T11:16:49.324Z,6.93
2019-04-03T11:19:19.815Z,6.17
2019-04-03T11:21:49.753Z,6.67
2019-04-03T11:24:20.451Z,5.70
2019-04-03T11:26:51.762Z,6.10
2019-04-03T11:29:20.742Z,5.50
2019-04-03T11:34:44.628Z,5.30
2019-04-03T11:37:13.898Z,3.93
2019-04-03T11:39:45.656Z,3.80
2019-04-03T11:42:23.886Z,4.00
2019-04-03T11:44:45.207Z,4.03
2019-04-03T11:47:14.764Z,3.77
2019-04-03T11:49:44.514Z,4.10
2019-04-03T11:52:13.697Z,4.00
2019-04-03T11:55:01.894Z,3.83
2019-04-03T11:57:31.420Z,3.93
2019-04-03T12:00:01.081Z,4.47
2019-04-03T12:02:30.356Z,4.13
2019-04-03T12:05:01.330Z,3.70
2019-04-03T12:07:30.589Z,5.00
2019-04-03T12:10:02.785Z,4.73
2019-04-03T12:12:30.775Z,0.00
2019-04-03T12:14:59.961Z,1.77
2019-04-03T12:17:30.306Z,4.70
2019-04-03T12:20:00.183Z,4.53
2019-04-03T12:22:29.490Z,4.50
2019-04-03T12:24:58.651Z,4.23
2019-04-03T12:27:27.910Z,4.03
2019-04-03T12:29:57.097Z,4.10
2019-04-03T12:32:36.660Z,3.80
2019-04-03T12:34:57.553Z,3.40
2019-04-03T12:37:28.225Z,3.60
2019-04-03T12:39:58.235Z,3.20
2019-04-03T12:42:28.816Z,2.60
2019-04-03T12:44:59.835Z,2.57
2019-04-03T12:47:30.404Z,3.23
2019-04-03T12:49:59.856Z,2.77
2019-04-03T12:52:29.091Z,3.40
2019-04-03T12:54:58.672Z,2.63
2019-04-03T12:57:28.240Z,2.90
2019-04-03T12:59:57.847Z,2.37
2019-04-03T13:02:28.417Z,2.47
2019-04-03T13:05:00.240Z,2.60
2019-04-03T13:07:28.639Z,1.70
2019-04-03T13:09:57.970Z,2.07
2019-04-03T13:12:27.895Z,2.07
2019-04-03T13:14:58.264Z,1.90
2019-04-03T13:17:27.841Z,1.80
2019-04-03T13:20:03.215Z,1.97
2019-04-03T13:22:29.909Z,2.20
2019-04-03T13:25:00.635Z,1.77
2019-04-03T13:27:32.370Z,2.00
2019-04-03T13:30:02.449Z,1.90
2019-04-03T13:32:32.173Z,2.47
2019-04-03T13:35:04.224Z,1.83
2019-04-03T13:37:32.377Z,1.47
2019-04-03T13:40:05.019Z,1.47
2019-04-03T13:42:32.566Z,1.70
2019-04-03T13:45:01.827Z,1.60
2019-04-03T13:47:31.013Z,1.80
2019-04-03T13:50:03.313Z,1.57
2019-04-03T13:52:40.152Z,1.80
2019-04-03T13:55:03.797Z,1.60
2019-04-03T13:57:33.706Z,1.43
2019-04-03T14:02:59.622Z,1.50
2019-04-03T14:05:32.331Z,1.60
2019-04-03T14:08:00.477Z,2.00
2019-04-03T14:10:31.213Z,1.33
2019-04-03T14:13:00.396Z,1.40
2019-04-03T14:15:30.090Z,1.33
2019-04-03T14:17:59.332Z,1.10
2019-04-03T14:21:08.277Z,1.40
2019-04-03T14:23:40.622Z,1.53
2019-04-03T14:26:13.414Z,1.30
2019-04-03T14:28:42.094Z,1.27
2019-04-03T14:31:12.842Z,1.30
2019-04-03T14:33:45.677Z,1.53
2019-04-03T14:36:13.611Z,1.40
2019-04-03T14:38:44.275Z,1.50
2019-04-03T14:41:13.534Z,1.20
2019-04-03T14:43:43.054Z,1.50
2019-04-03T14:46:12.329Z,1.57
2019-04-03T14:48:41.634Z,1.40
2019-04-03T14:51:12.168Z,1.10
2019-04-03T14:53:41.850Z,1.73
2019-04-03T14:56:11.507Z,1.40
2019-04-03T14:58:42.551Z,1.30
2019-04-03T15:01:13.429Z,1.60
2019-04-03T15:03:42.594Z,1.30
2019-04-03T15:06:12.362Z,1.10
2019-04-03T15:08:42.793Z,1.67
2019-04-03T15:11:12.430Z,2.07
2019-04-03T15:13:43.183Z,2.37
2019-04-03T15:16:12.422Z,1.60
2019-04-03T15:21:16.530Z,1.83
2019-04-03T15:23:47.428Z,1.63
2019-04-03T15:26:19.421Z,1.60
2019-04-03T15:28:49.707Z,1.60
2019-04-03T15:31:20.246Z,1.60
2019-04-03T15:33:49.798Z,1.90
2019-04-03T15:36:19.437Z,1.40
2019-04-03T15:38:48.980Z,1.40
2019-04-03T15:41:18.357Z,1.50
2019-04-03T15:43:50.748Z,1.73
2019-04-03T15:46:18.725Z,1.40
2019-04-03T15:48:50.999Z,1.70
2019-04-03T15:51:20.950Z,2.37
2019-04-03T15:54:10.470Z,1.20
2019-04-03T15:59:15.312Z,1.90
2019-04-03T16:01:45.710Z,1.50
2019-04-03T16:04:14.946Z,1.70
2019-04-03T16:06:44.216Z,1.43
2019-04-03T16:09:13.480Z,1.50
2019-04-03T16:11:43.078Z,1.70
2019-04-03T16:14:13.695Z,1.77
2019-04-03T16:17:03.507Z,1.53
2019-04-03T16:19:33.406Z,1.90
2019-04-03T16:22:02.733Z,2.00
2019-04-03T16:24:32.452Z,2.00
2019-04-03T16:27:03.006Z,2.03
2019-04-03T16:29:32.630Z,1.80
2019-04-03T16:32:01.922Z,1.80
2019-04-03T16:34:31.434Z,1.57
2019-04-03T16:37:01.184Z,2.00
2019-04-03T16:39:32.948Z,1.60
2019-04-03T16:42:03.764Z,1.70
2019-04-03T16:44:34.533Z,1.90
2019-04-03T16:47:03.867Z,1.70
2019-04-03T16:49:33.520Z,1.90
2019-04-03T16:52:16.444Z,1.80
2019-04-03T16:54:57.423Z,1.90
2019-04-03T16:57:26.728Z,1.73
2019-04-03T16:59:56.794Z,1.73
2019-04-03T17:02:27.946Z,1.80
2019-04-03T17:04:57.374Z,1.80
2019-04-03T17:07:26.649Z,3.00
2019-04-03T17:09:55.868Z,1.70
2019-04-03T17:12:25.074Z,1.60
2019-04-03T17:14:56.328Z,1.67
2019-04-03T17:17:25.831Z,1.93
2019-04-03T17:19:55.594Z,1.70
2019-04-03T17:22:26.029Z,1.80
2019-04-03T17:24:56.412Z,1.90
2019-04-03T17:27:29.693Z,1.83
2019-04-03T17:29:57.290Z,2.03
2019-04-03T17:32:29.064Z,1.70
2019-04-03T17:34:57.474Z,1.90
2019-04-03T17:37:29.680Z,1.90
2019-04-03T17:39:57.722Z,1.70
2019-04-03T17:42:27.002Z,2.17
2019-04-03T17:44:56.206Z,1.73
2019-04-03T17:47:25.543Z,1.83
2019-04-03T17:49:54.750Z,1.90
2019-04-03T17:52:43.567Z,1.73
2019-04-03T17:55:13.172Z,1.87
2019-04-03T17:57:44.548Z,1.97
2019-04-03T18:00:14.420Z,1.87
2019-04-03T18:02:43.647Z,1.77
2019-04-03T18:05:52.293Z,1.40
2019-04-03T18:08:21.831Z,1.60
2019-04-03T18:10:51.441Z,1.53
2019-04-03T18:13:23.183Z,1.50
2019-04-03T18:18:41.407Z,2.00
2019-04-03T18:21:12.966Z,2.00
2019-04-03T18:23:41.807Z,2.07
2019-04-03T18:26:11.176Z,2.00
2019-04-03T18:28:40.733Z,1.80
2019-04-03T18:31:10.072Z,1.90
2019-04-03T18:33:39.489Z,2.23
2019-04-03T18:36:08.699Z,1.87
2019-04-03T18:38:38.545Z,2.03
2019-04-03T18:41:08.894Z,2.10
2019-04-03T18:43:38.901Z,2.07
2019-04-03T18:46:08.131Z,1.83
2019-04-03T18:48:37.667Z,1.93
2019-04-03T18:51:07.310Z,1.70
2019-04-03T18:53:36.555Z,1.80
2019-04-03T18:56:05.965Z,1.57
2019-04-03T18:58:35.177Z,1.80
2019-04-03T19:01:04.466Z,2.00
2019-04-03T19:03:36.192Z,2.17
2019-04-03T19:06:04.664Z,1.90
2019-04-03T19:08:33.858Z,2.00
2019-04-03T19:11:07.631Z,2.10
2019-04-03T19:13:34.141Z,1.80
2019-04-03T19:16:03.390Z,2.07
2019-04-03T19:18:32.599Z,2.00
2019-04-03T19:21:01.798Z,2.10
2019-04-03T19:23:31.351Z,1.90
2019-04-03T19:26:00.575Z,2.23
2019-04-03T19:28:29.825Z,2.10
2019-04-03T19:30:59.045Z,1.90
2019-04-03T19:33:28.363Z,1.97
2019-04-03T19:35:58.652Z,1.93
2019-04-03T19:38:28.559Z,1.87
2019-04-03T19:40:57.755Z,2.10
2019-04-03T19:43:27.067Z,1.83
2019-04-03T19:49:05.328Z,2.20
2019-04-03T19:51:37.194Z,1.73
2019-04-03T19:54:05.989Z,2.07
2019-04-03T19:56:35.270Z,1.83
2019-04-03T19:59:04.963Z,2.20
2019-04-03T20:01:38.770Z,1.90
2019-04-03T20:04:06.532Z,2.00
2019-04-03T20:09:49.922Z,4.50
2019-04-03T20:12:19.118Z,5.50
2019-04-03T20:14:57.891Z,5.60
2019-04-03T20:17:19.789Z,5.63
2019-04-03T20:19:48.971Z,5.97
2019-04-03T20:22:18.230Z,6.23
2019-04-03T20:24:59.454Z,6.27
2019-04-03T20:27:18.980Z,6.83
2019-04-03T20:29:48.891Z,6.83
2019-04-03T20:32:18.155Z,7.00
2019-04-03T20:34:47.372Z,7.10
2019-04-03T20:37:16.644Z,7.30
2019-04-03T20:39:46.133Z,6.83
2019-04-03T20:42:15.381Z,6.73
2019-04-03T20:44:48.001Z,6.50
2019-04-03T20:47:15.544Z,6.37
2019-04-03T20:49:44.739Z,6.47
2019-04-03T20:52:14.064Z,6.70
2019-04-03T20:54:43.264Z,6.17
2019-04-03T20:57:13.606Z,6.17
2019-04-03T20:59:52.526Z,5.90
2019-04-03T21:02:14.450Z,6.17
2019-04-03T21:04:46.471Z,5.20
2019-04-03T21:07:14.602Z,5.60
2019-04-03T21:09:43.835Z,5.40
2019-04-03T21:12:13.031Z,5.20
2019-04-03T21:14:42.273Z,5.13
2019-04-03T21:17:11.465Z,5.10
2019-04-03T21:19:40.715Z,5.03
2019-04-03T21:22:09.893Z,5.40
2019-04-03T21:27:34.129Z,5.00
2019-04-03T21:30:03.480Z,5.00
2019-04-03T21:32:32.679Z,4.93
2019-04-03T21:37:39.693Z,5.40
2019-04-03T21:40:07.698Z,5.60
2019-04-03T21:42:36.908Z,5.70
2019-04-03T21:45:07.508Z,5.57
2019-04-03T21:47:37.370Z,5.70
2019-04-03T21:50:46.001Z,5.20
2019-04-03T21:53:15.241Z,5.40
2019-04-03T21:55:44.489Z,5.67
2019-04-03T21:58:13.673Z,6.03
2019-04-03T22:04:00.954Z,6.20
2019-04-03T22:06:30.608Z,5.87
2019-04-03T22:09:00.673Z,5.27
2019-04-03T22:11:30.843Z,5.03
2019-04-03T22:14:00.043Z,5.87
2019-04-03T22:16:29.400Z,4.90
2019-04-03T22:18:58.586Z,5.13
2019-04-03T22:21:27.859Z,4.47
2019-04-03T22:23:57.104Z,4.63
2019-04-03T22:26:26.635Z,4.90
2019-04-03T22:28:55.900Z,4.63
2019-04-03T22:31:25.441Z,4.67
2019-04-03T22:33:54.702Z,4.17
2019-04-03T22:36:24.201Z,5.03
2019-04-03T22:38:53.471Z,4.63
2019-04-03T22:41:22.686Z,5.20
2019-04-03T22:43:51.935Z,4.73
2019-04-03T22:46:22.124Z,4.50
2019-04-03T22:48:52.495Z,5.17
2019-04-03T22:51:21.737Z,4.83
2019-04-03T22:54:02.464Z,4.83
2019-04-03T22:56:31.789Z,5.37
2019-04-03T22:59:01.357Z,5.43
2019-04-03T23:01:30.565Z,5.00
2019-04-03T23:03:59.835Z,5.70
2019-04-03T23:06:29.083Z,5.87
2019-04-03T23:08:58.349Z,5.50
2019-04-03T23:11:27.563Z,5.60
2019-04-03T23:13:56.839Z,5.07
2019-04-03T23:16:26.057Z,5.27
2019-04-03T23:18:55.363Z,5.30
2019-04-03T23:21:24.571Z,5.40
2019-04-03T23:23:53.838Z,5.30
2019-04-03T23:26:23.179Z,5.30
2019-04-03T23:28:52.387Z,5.50
2019-04-03T23:31:21.974Z,5.07
2019-04-03T23:33:51.182Z,4.73
2019-04-03T23:36:21.084Z,4.83
2019-04-03T23:38:51.400Z,4.70
2019-04-03T23:41:20.639Z,5.30
2019-04-03T23:43:49.862Z,4.83
2019-04-03T23:46:19.113Z,5.30
2019-04-03T23:48:49.029Z,4.57
2019-04-03T23:51:23.563Z,4.67
2019-04-03T23:53:50.773Z,4.63
2019-04-03T23:56:20.277Z,4.33
2019-04-03T23:58:49.803Z,4.67
